UKOH/KHE METAR and TAF weather

Enter ICAO airport designator
Station Type Date Time Source
UKOH METAR 2021/02/27 20:00 UTC NOAA

UKOH 272000Z 32004MPS 9999 BKN022CB 04/02 Q1020 R21/190060 NOSIG


Station Type Date Time Source
UKOH Decoded METAR 2021/02/27 20:00 UTC NOAA

Station name not available
Feb 27, 2021 - 03:00 PM EST / 2021.02.27 2000 UTC
Wind: from the NW (320 degrees) at 9 MPH (8 KT):0
Visibility: greater than 7 mile(s):0
Sky conditions: mostly cloudy
Weather: Cumulonimbus clouds observed
Temperature: 39 F (4 C)
Dew Point: 35 F (2 C)
Relative Humidity: 86%
Pressure (altimeter): 30.12 in. Hg (1020 hPa)
ob: UKOH 272000Z 32004MPS 9999 BKN022CB 04/02 Q1020 R21/190060 NOSIG
cycle: 20

Station Type Date Time Source
UKOH TAF UTC NOAA

Error!

Example: see airport list